Time;durP1;ratioP1;P1;durP2;ratioP2;P2;SDS_P1;SDS_P2;PMS_P1;PMS_P2;Temp;Humidity;BMP_temperature;BMP_pressure;BME280_temperature;BME280_humidity;BME280_pressure;Samples;Min_cycle;Max_cycle;Signal;HPM_P1;HPM_P2
2024/04/09 00:01:22;;;;;;;30.20;2.88;;;28.30;15.00;;;;;;6720212;26;20009;-70
2024/04/09 00:04:23;;;;;;;22.13;2.25;;;28.30;15.10;;;;;;6781270;25;20597;-71
2024/04/09 00:07:25;;;;;;;23.95;2.10;;;28.30;15.10;;;;;;6782138;26;20123;-71
2024/04/09 00:10:26;;;;;;;21.67;2.47;;;28.30;15.10;;;;;;6748080;26;20010;-70
2024/04/09 00:13:29;;;;;;;22.83;2.42;;;28.30;15.00;;;;;;6719116;26;20141;-71
2024/04/09 00:16:33;;;;;;;18.60;1.92;;;28.40;15.00;;;;;;6774563;26;20597;-72
2024/04/09 00:19:34;;;;;;;20.70;1.38;;;28.40;15.00;;;;;;6767461;26;20063;-71
2024/04/09 00:22:36;;;;;;;21.13;2.53;;;28.30;14.90;;;;;;6745832;26;20066;-71
2024/04/09 00:25:39;;;;;;;21.17;2.35;;;28.40;15.10;;;;;;6789637;26;19997;-70
2024/04/09 00:28:40;;;;;;;12.43;2.25;;;28.30;15.00;;;;;;6767415;26;20392;-70
2024/04/09 00:31:41;;;;;;;18.00;4.05;;;28.40;15.30;;;;;;6829626;26;20061;-70
2024/04/09 00:34:42;;;;;;;30.92;3.53;;;28.30;15.90;;;;;;6749335;26;20699;-71
2024/04/09 00:37:43;;;;;;;25.33;4.25;;;28.30;16.40;;;;;;6744438;26;20372;-70
2024/04/09 00:40:45;;;;;;;22.20;3.20;;;28.30;16.60;;;;;;6824847;26;20016;-70
2024/04/09 00:43:47;;;;;;;27.90;2.90;;;28.30;17.00;;;;;;6797197;25;20059;-71
2024/04/09 00:46:48;;;;;;;45.45;4.28;;;28.20;17.40;;;;;;6766512;26;20002;-71
2024/04/09 00:49:49;;;;;;;39.95;4.15;;;28.20;17.70;;;;;;6751052;26;20303;-70
2024/04/09 00:52:54;;;;;;;41.55;4.22;;;28.20;17.90;;;;;;6713356;26;20054;-70
2024/04/09 00:55:56;;;;;;;38.00;4.43;;;28.10;18.00;;;;;;6768042;26;20002;-70
2024/04/09 00:58:57;;;;;;;30.17;4.03;;;28.10;18.20;;;;;;6683195;26;20031;-70
2024/04/09 01:02:00;;;;;;;35.97;3.83;;;28.00;18.70;;;;;;6717342;26;20074;-70
2024/04/09 01:05:01;;;;;;;31.48;4.32;;;27.90;18.70;;;;;;6759026;26;20012;-70
2024/04/09 01:08:03;;;;;;;27.95;3.63;;;27.90;18.60;;;;;;6696749;26;20002;-70
2024/04/09 01:11:04;;;;;;;25.35;3.58;;;27.90;18.70;;;;;;6784309;26;20087;-70
2024/04/09 01:14:04;;;;;;;34.38;3.42;;;27.80;18.70;;;;;;6719564;26;19998;-71
2024/04/09 01:17:05;;;;;;;45.58;4.53;;;27.80;18.70;;;;;;6762926;26;21024;-70
2024/04/09 01:20:07;;;;;;;18.75;4.47;;;27.70;18.90;;;;;;6744530;26;20489;-70
2024/04/09 01:23:10;;;;;;;34.45;4.00;;;27.60;19.10;;;;;;6748160;26;20006;-71
2024/04/09 01:26:14;;;;;;;42.13;5.63;;;27.70;19.40;;;;;;6758979;26;20303;-71
2024/04/09 01:29:16;;;;;;;28.63;4.07;;;27.50;19.80;;;;;;6750286;26;20066;-70
2024/04/09 01:32:17;;;;;;;34.60;4.03;;;27.50;20.00;;;;;;6768888;26;20057;-71
2024/04/09 01:35:19;;;;;;;30.27;4.35;;;27.50;20.10;;;;;;6777710;26;20027;-70
2024/04/09 01:38:20;;;;;;;27.10;3.05;;;27.40;20.10;;;;;;6734177;26;20443;-71
2024/04/09 01:41:21;;;;;;;28.63;4.43;;;27.40;20.10;;;;;;6774651;26;20077;-70
2024/04/09 01:44:22;;;;;;;25.23;2.92;;;27.40;20.00;;;;;;6728239;26;20360;-70
2024/04/09 01:47:23;;;;;;;19.20;2.08;;;27.30;21.00;;;;;;6721386;26;20002;-70
2024/04/09 01:50:24;;;;;;;9.98;2.30;;;27.00;22.30;;;;;;6738906;26;20346;-70
2024/04/09 01:53:27;;;;;;;16.10;2.28;;;26.60;23.40;;;;;;6787950;26;20128;-70
2024/04/09 01:56:28;;;;;;;16.25;1.42;;;26.00;24.70;;;;;;6740403;26;20015;-71
2024/04/09 01:59:30;;;;;;;13.70;1.40;;;25.50;24.80;;;;;;6747971;26;20018;-70
2024/04/09 02:02:31;;;;;;;8.30;1.48;;;25.10;25.60;;;;;;6737686;26;20454;-69
2024/04/09 02:05:36;;;;;;;7.65;1.35;;;24.80;26.70;;;;;;6779084;26;19995;-69
2024/04/09 02:08:37;;;;;;;8.93;1.10;;;24.40;27.70;;;;;;6711555;26;20058;-71
2024/04/09 02:11:38;;;;;;;3.63;1.20;;;24.10;28.30;;;;;;6731123;26;20697;-71
2024/04/09 02:14:39;;;;;;;19.58;1.35;;;23.80;28.90;;;;;;6753166;26;20495;-71
2024/04/09 02:17:40;;;;;;;5.63;1.13;;;23.60;29.50;;;;;;6762246;26;20077;-70
2024/04/09 02:20:44;;;;;;;7.70;1.20;;;23.40;29.90;;;;;;6690944;26;20740;-69
2024/04/09 02:23:47;;;;;;;12.10;1.20;;;23.20;30.80;;;;;;6760357;26;20120;-72
2024/04/09 02:26:49;;;;;;;13.90;1.65;;;23.00;31.70;;;;;;6819005;25;20056;-71
2024/04/09 02:29:50;;;;;;;9.32;1.38;;;22.80;32.70;;;;;;6782349;26;20015;-69
2024/04/09 02:32:52;;;;;;;8.70;1.92;;;22.70;33.10;;;;;;6746546;26;20753;-71
2024/04/09 02:36:05;;;;;;;13.60;2.08;;;22.60;33.70;;;;;;6764639;25;20028;-70
2024/04/09 02:39:08;;;;;;;12.93;1.90;;;22.40;34.80;;;;;;6785316;26;20348;-71
2024/04/09 02:42:13;;;;;;;9.52;1.70;;;22.30;35.50;;;;;;6803330;26;20010;-69
2024/04/09 02:45:14;;;;;;;14.55;1.65;;;22.20;35.60;;;;;;6725010;26;20062;-71
2024/04/09 02:48:16;;;;;;;15.00;1.38;;;22.10;36.00;;;;;;6737719;26;20068;-70
2024/04/09 02:51:16;;;;;;;36.35;2.45;;;22.10;36.80;;;;;;6744164;26;20710;-69
2024/04/09 02:54:17;;;;;;;22.90;1.77;;;22.00;37.80;;;;;;6737011;26;19999;-70
2024/04/09 02:57:18;;;;;;;6.90;1.15;;;22.00;38.10;;;;;;6783193;26;20034;-69
2024/04/09 03:00:19;;;;;;;6.20;0.95;;;22.00;38.10;;;;;;6741676;26;19999;-71
2024/04/09 03:03:20;;;;;;;16.85;1.48;;;22.00;37.90;;;;;;6748403;26;19999;-70
2024/04/09 03:06:21;;;;;;;9.32;1.38;;;22.00;38.20;;;;;;6760177;26;20415;-70
2024/04/09 03:09:22;;;;;;;24.05;2.22;;;22.00;39.00;;;;;;6752598;26;20123;-70
2024/04/09 03:12:23;;;;;;;12.23;1.77;;;21.90;39.00;;;;;;6762735;26;20326;-70
2024/04/09 03:15:24;;;;;;;9.45;1.48;;;21.90;38.90;;;;;;6782842;25;20010;-72
2024/04/09 03:18:25;;;;;;;11.88;1.42;;;21.90;39.00;;;;;;6713377;26;20006;-70
2024/04/09 03:21:26;;;;;;;10.27;1.65;;;21.90;39.30;;;;;;6760164;26;20038;-73
2024/04/09 03:24:27;;;;;;;7.43;1.48;;;21.90;39.90;;;;;;6748892;26;19999;-69
2024/04/09 03:27:27;;;;;;;8.57;1.52;;;21.90;40.20;;;;;;6761930;26;19998;-70
2024/04/09 03:30:28;;;;;;;11.13;1.90;;;21.80;41.40;;;;;;6756714;26;20004;-70
2024/04/09 03:33:30;;;;;;;3.35;0.98;;;21.70;42.10;;;;;;6717737;26;20186;-68
2024/04/09 03:36:31;;;;;;;5.45;0.38;;;21.30;44.00;;;;;;6757247;26;19997;-70
2024/04/09 03:39:33;;;;;;;5.72;0.30;;;20.60;45.10;;;;;;6722369;26;20295;-70
2024/04/09 03:42:36;;;;;;;17.30;0.40;;;19.90;46.60;;;;;;6751656;26;19999;-68
2024/04/09 03:45:37;;;;;;;0.68;0.25;;;19.30;48.10;;;;;;6735115;26;20010;-70
2024/04/09 03:48:44;;;;;;;0.22;0.00;;;18.80;49.20;;;;;;6774637;26;19994;-70
2024/04/09 03:51:45;;;;;;;0.35;0.10;;;18.30;50.30;;;;;;6739053;26;20009;-71
2024/04/09 03:54:46;;;;;;;2.55;0.10;;;17.80;51.30;;;;;;6720305;26;20031;-67
2024/04/09 03:57:47;;;;;;;1.15;0.10;;;17.40;52.50;;;;;;6682450;26;20114;-70
2024/04/09 04:01:02;;;;;;;0.00;0.00;;;17.10;53.60;;;;;;6704212;26;20544;-70
2024/04/09 04:04:03;;;;;;;0.10;0.10;;;16.80;53.40;;;;;;6759531;26;20062;-69
2024/04/09 04:07:04;;;;;;;2.92;0.10;;;16.70;53.20;;;;;;6696299;26;19994;-70
2024/04/09 04:10:06;;;;;;;0.10;0.10;;;16.60;53.00;;;;;;6739937;26;20006;-71
2024/04/09 04:13:08;;;;;;;0.32;0.10;;;16.50;52.70;;;;;;6739479;26;19990;-70
2024/04/09 04:16:09;;;;;;;4.03;0.05;;;16.30;53.20;;;;;;6736073;26;20007;-71
2024/04/09 04:19:10;;;;;;;0.00;0.00;;;16.00;54.50;;;;;;6810329;26;20077;-70
2024/04/09 04:22:11;;;;;;;0.20;0.10;;;15.70;55.30;;;;;;6777521;26;19994;-71
2024/04/09 04:25:12;;;;;;;0.00;0.00;;;15.40;56.20;;;;;;6732194;26;20071;-71
2024/04/09 04:28:13;;;;;;;0.38;0.10;;;15.10;56.80;;;;;;6778736;26;20017;-70
2024/04/09 04:31:17;;;;;;;0.00;0.00;;;14.80;57.60;;;;;;6736554;26;19998;-74
2024/04/09 04:34:18;;;;;;;0.00;0.00;;;14.60;58.20;;;;;;6712937;26;20443;-71
2024/04/09 04:37:19;;;;;;;0.40;0.00;;;14.40;58.60;;;;;;6710468;26;20006;-70
2024/04/09 04:40:20;;;;;;;0.10;0.10;;;14.30;59.00;;;;;;6707314;26;21583;-70
2024/04/09 04:43:23;;;;;;;3.50;0.08;;;14.30;59.50;;;;;;6716917;26;20011;-70
2024/04/09 04:46:24;;;;;;;0.00;0.00;;;14.10;61.10;;;;;;6775130;26;20142;-71
2024/04/09 04:49:25;;;;;;;0.13;0.10;;;13.90;61.90;;;;;;6712429;26;20407;-71
2024/04/09 04:52:26;;;;;;;2.88;0.63;;;13.70;63.20;;;;;;6715815;26;20031;-72
2024/04/09 04:55:27;;;;;;;0.45;0.20;;;13.50;64.40;;;;;;6681073;26;20188;-72
2024/04/09 04:58:28;;;;;;;0.73;0.03;;;13.30;65.50;;;;;;6720459;26;20013;-71
2024/04/09 05:01:29;;;;;;;0.70;0.28;;;13.20;66.30;;;;;;6716641;26;20064;-70
2024/04/09 05:04:30;;;;;;;0.00;0.00;;;13.10;67.10;;;;;;6745646;26;20022;-70
2024/04/09 05:07:34;;;;;;;2.20;0.10;;;13.00;68.20;;;;;;6679106;26;20010;-72
2024/04/09 05:10:37;;;;;;;2.33;0.20;;;12.90;67.60;;;;;;6712845;26;20003;-70
2024/04/09 05:13:38;;;;;;;3.35;0.43;;;12.80;68.40;;;;;;6711594;26;20108;-70
2024/04/09 05:16:40;;;;;;;0.00;0.00;;;12.70;69.00;;;;;;6685684;26;20175;-72
2024/04/09 05:19:42;;;;;;;0.00;0.00;;;12.70;69.10;;;;;;6683071;26;20505;-71
2024/04/09 05:22:45;;;;;;;0.00;0.00;;;12.60;69.20;;;;;;6710282;26;20018;-70
2024/04/09 05:25:46;;;;;;;0.00;0.00;;;12.60;69.60;;;;;;6688304;26;20078;-72
2024/04/09 05:28:47;;;;;;;0.22;0.17;;;12.50;69.50;;;;;;6710174;26;19999;-70
2024/04/09 05:31:48;;;;;;;0.00;0.00;;;12.40;69.50;;;;;;6761636;26;20022;-71
2024/04/09 05:34:49;;;;;;;0.00;0.00;;;12.30;69.60;;;;;;6752194;26;20397;-70
2024/04/09 05:37:50;;;;;;;0.00;0.00;;;12.30;69.70;;;;;;6803218;26;20012;-72
2024/04/09 05:40:58;;;;;;;0.00;0.00;;;12.20;69.60;;;;;;6794951;26;20105;-71
2024/04/09 05:43:59;;;;;;;0.30;0.10;;;12.20;70.10;;;;;;6791102;25;20050;-71
2024/04/09 05:47:01;;;;;;;0.10;0.05;;;12.10;70.70;;;;;;6744542;26;20002;-71
2024/04/09 05:50:03;;;;;;;0.57;0.25;;;12.00;71.10;;;;;;6791065;26;20434;-72
2024/04/09 05:53:04;;;;;;;2.45;0.25;;;12.00;71.50;;;;;;6678102;26;20006;-71
2024/04/09 05:56:05;;;;;;;0.00;0.00;;;12.00;71.50;;;;;;6752501;26;20477;-72
2024/04/09 05:59:06;;;;;;;0.00;0.00;;;11.90;72.10;;;;;;6754852;26;20175;-72
2024/04/09 06:02:07;;;;;;;0.00;0.00;;;11.90;72.30;;;;;;6736507;26;20406;-70
2024/04/09 06:05:08;;;;;;;1.30;0.40;;;11.90;72.50;;;;;;6726610;26;20014;-71
2024/04/09 06:08:09;;;;;;;0.00;0.00;;;11.90;72.90;;;;;;6763338;26;20041;-71
2024/04/09 06:11:10;;;;;;;0.00;0.00;;;11.80;72.40;;;;;;6783446;25;20070;-70
2024/04/09 06:14:11;;;;;;;0.00;0.00;;;11.70;72.20;;;;;;6750269;26;20043;-70
2024/04/09 06:17:11;;;;;;;0.00;0.00;;;11.60;71.70;;;;;;6761885;26;20157;-74
2024/04/09 06:20:12;;;;;;;0.00;0.00;;;11.50;71.30;;;;;;6818520;25;19994;-71
2024/04/09 06:23:13;;;;;;;0.00;0.00;;;11.40;70.90;;;;;;6800079;26;19993;-73
2024/04/09 06:26:18;;;;;;;0.00;0.00;;;11.30;70.50;;;;;;6768787;26;20013;-73
2024/04/09 06:29:20;;;;;;;0.00;0.00;;;11.20;70.70;;;;;;6775951;26;20033;-71
2024/04/09 06:32:21;;;;;;;0.00;0.00;;;11.10;71.10;;;;;;6747494;26;20013;-72
2024/04/09 06:35:22;;;;;;;7.03;0.30;;;11.00;71.70;;;;;;6790865;26;20010;-73
2024/04/09 06:38:23;;;;;;;0.10;0.10;;;11.00;72.40;;;;;;6804895;26;20081;-72
2024/04/09 06:41:24;;;;;;;1.65;0.28;;;11.00;72.80;;;;;;6760986;26;20037;-74
2024/04/09 06:44:26;;;;;;;1.45;0.10;;;11.00;73.50;;;;;;6726355;26;20453;-73
2024/04/09 06:47:27;;;;;;;3.53;0.77;;;10.90;73.30;;;;;;6756866;26;20006;-72
2024/04/09 06:50:29;;;;;;;3.38;0.17;;;10.90;73.50;;;;;;6693446;26;20009;-74
2024/04/09 06:53:30;;;;;;;0.10;0.10;;;10.90;73.90;;;;;;6774899;26;20039;-74
2024/04/09 06:56:31;;;;;;;2.25;0.50;;;10.90;74.30;;;;;;6747528;26;20336;-74
2024/04/09 06:59:32;;;;;;;0.10;0.10;;;10.90;74.30;;;;;;6710107;26;20075;-72
2024/04/09 07:02:33;;;;;;;0.25;0.08;;;10.90;74.40;;;;;;6743227;26;20009;-72
2024/04/09 07:05:34;;;;;;;3.50;0.30;;;10.90;74.30;;;;;;6675654;26;20007;-73
2024/04/09 07:08:36;;;;;;;2.55;0.22;;;10.90;74.40;;;;;;6750443;26;20005;-73
2024/04/09 07:11:37;;;;;;;0.52;0.22;;;11.00;74.20;;;;;;6749322;26;20009;-73
2024/04/09 07:14:38;;;;;;;0.00;0.00;;;10.90;73.30;;;;;;6717294;26;19998;-73
2024/04/09 07:17:39;;;;;;;2.83;0.10;;;10.90;73.10;;;;;;6775498;26;20038;-73
2024/04/09 07:20:41;;;;;;;0.20;0.15;;;10.80;73.10;;;;;;6745320;26;19994;-73
2024/04/09 07:23:42;;;;;;;0.15;0.00;;;10.80;73.10;;;;;;6764221;26;19990;-73
2024/04/09 07:26:43;;;;;;;0.13;0.13;;;10.80;73.30;;;;;;6710547;26;20106;-74
2024/04/09 07:29:44;;;;;;;0.00;0.00;;;10.70;73.50;;;;;;6696525;26;19995;-73
2024/04/09 07:32:45;;;;;;;0.00;0.00;;;10.70;73.30;;;;;;6709611;26;19999;-74
2024/04/09 07:35:46;;;;;;;0.50;0.13;;;10.60;73.20;;;;;;6752278;26;20003;-73
2024/04/09 07:38:49;;;;;;;0.00;0.00;;;10.60;73.30;;;;;;6795723;26;19990;-73
2024/04/09 07:41:51;;;;;;;0.10;0.10;;;10.50;73.30;;;;;;6821593;25;20436;-71
2024/04/09 07:44:52;;;;;;;0.30;0.22;;;10.40;73.40;;;;;;6717744;26;20028;-71
2024/04/09 07:47:53;;;;;;;1.45;0.20;;;10.40;73.80;;;;;;6787634;26;20452;-73
2024/04/09 07:50:54;;;;;;;0.25;0.20;;;10.40;74.10;;;;;;6697261;26;19995;-73
2024/04/09 07:53:58;;;;;;;1.30;0.40;;;10.40;74.50;;;;;;6820173;25;19993;-73
2024/04/09 07:57:00;;;;;;;0.47;0.20;;;10.30;74.70;;;;;;6759726;26;20010;-73
2024/04/09 08:00:01;;;;;;;0.20;0.10;;;10.40;75.10;;;;;;6764699;26;20422;-75
2024/04/09 08:03:02;;;;;;;1.10;0.45;;;10.40;75.30;;;;;;6733967;26;19993;-73
2024/04/09 08:06:04;;;;;;;1.48;0.10;;;10.40;75.30;;;;;;6764748;25;20003;-72
2024/04/09 08:09:05;;;;;;;1.35;0.63;;;10.40;75.50;;;;;;6757751;26;20023;-72
2024/04/09 08:12:05;;;;;;;0.50;0.50;;;10.40;75.60;;;;;;6722936;26;20066;-73
2024/04/09 08:15:08;;;;;;;2.28;0.47;;;10.50;76.00;;;;;;6682493;26;20007;-74
2024/04/09 08:18:08;;;;;;;0.90;0.80;;;10.30;75.90;;;;;;6752311;26;20530;-72
2024/04/09 08:21:10;;;;;;;0.10;0.10;;;10.60;76.00;;;;;;6797152;26;19994;-73
2024/04/09 08:24:11;;;;;;;4.72;0.73;;;10.70;76.00;;;;;;6761051;26;20055;-73
2024/04/09 08:27:12;;;;;;;0.35;0.22;;;10.70;75.40;;;;;;6738180;26;20415;-73
2024/04/09 08:30:17;;;;;;;0.10;0.10;;;10.80;75.40;;;;;;6704690;26;20794;-72
2024/04/09 08:33:20;;;;;;;4.63;0.20;;;10.80;75.00;;;;;;6740659;26;20016;-72
2024/04/09 08:36:22;;;;;;;0.38;0.20;;;10.80;74.10;;;;;;6800558;26;19997;-72
2024/04/09 08:39:24;;;;;;;1.38;0.55;;;10.70;73.30;;;;;;6745161;26;20839;-72
2024/04/09 08:42:29;;;;;;;0.00;0.00;;;10.70;73.60;;;;;;6753692;26;20081;-73
2024/04/09 08:45:31;;;;;;;0.45;0.20;;;10.80;73.60;;;;;;6720544;26;19998;-73
2024/04/09 08:48:33;;;;;;;1.48;0.38;;;10.90;73.60;;;;;;6799097;26;20009;-73
2024/04/09 08:51:35;;;;;;;0.13;0.13;;;10.90;73.60;;;;;;6779829;26;20033;-74
2024/04/09 08:54:40;;;;;;;0.25;0.13;;;11.00;73.30;;;;;;6763358;26;20007;-73
2024/04/09 08:57:41;;;;;;;0.00;0.00;;;11.00;73.30;;;;;;6758635;26;20308;-72
2024/04/09 09:00:42;;;;;;;0.90;0.30;;;11.20;73.70;;;;;;6727005;26;19997;-74
2024/04/09 09:03:46;;;;;;;1.75;0.25;;;11.30;73.90;;;;;;6793420;26;19993;-73
2024/04/09 09:06:47;;;;;;;0.47;0.38;;;11.40;73.90;;;;;;6801321;26;20527;-72
2024/04/09 09:09:50;;;;;;;1.65;0.30;;;11.60;73.90;;;;;;6800392;26;19993;-74
2024/04/09 09:13:02;;;;;;;0.20;0.20;;;11.70;73.70;;;;;;6773715;26;20450;-73
2024/04/09 09:16:09;;;;;;;0.20;0.20;;;12.00;73.90;;;;;;6727743;26;19999;-73
2024/04/09 09:19:10;;;;;;;2.75;0.20;;;12.20;73.70;;;;;;6729949;26;20101;-73
2024/04/09 09:22:12;;;;;;;0.88;0.28;;;12.30;73.30;;;;;;6797366;26;20004;-72
2024/04/09 09:25:22;;;;;;;1.10;0.30;;;12.50;72.90;;;;;;6814154;26;20009;-73
2024/04/09 09:28:26;;;;;;;0.30;0.13;;;12.60;72.20;;;;;;6768415;26;19995;-72
2024/04/09 09:31:31;;;;;;;0.88;0.22;;;12.70;71.60;;;;;;6741055;26;20192;-73
2024/04/09 09:34:46;;;;;;;0.20;0.10;;;12.80;71.60;;;;;;6721431;26;19998;-73
2024/04/09 09:37:51;;;;;;;0.90;0.40;;;12.90;71.50;;;;;;6727519;26;19999;-72
2024/04/09 09:40:54;;;;;;;0.22;0.20;;;13.10;71.10;;;;;;6748684;26;20010;-72
2024/04/09 09:43:55;;;;;;;0.93;0.30;;;13.10;70.70;;;;;;6786102;26;20008;-72
2024/04/09 09:46:58;;;;;;;0.40;0.35;;;13.20;70.50;;;;;;6767505;26;20075;-73
2024/04/09 09:50:02;;;;;;;1.05;0.40;;;13.20;70.50;;;;;;6708831;26;20531;-74
2024/04/09 09:53:03;;;;;;;3.22;0.60;;;13.20;71.20;;;;;;6710724;26;20009;-72
2024/04/09 09:56:06;;;;;;;0.68;0.40;;;13.50;71.60;;;;;;6743246;26;20047;-72
2024/04/09 09:59:09;;;;;;;1.70;1.05;;;13.70;71.60;;;;;;6764954;26;19997;-74
2024/04/09 10:02:10;;;;;;;0.50;0.50;;;13.80;71.40;;;;;;6770555;26;20012;-74
2024/04/09 10:05:13;;;;;;;0.75;0.50;;;14.00;71.30;;;;;;6760176;26;19993;-72
2024/04/09 10:08:20;;;;;;;1.02;0.50;;;14.00;71.30;;;;;;6750313;26;19994;-73
2024/04/09 10:11:21;;;;;;;1.10;0.50;;;14.10;71.50;;;;;;6748962;26;20009;-71
2024/04/09 10:14:23;;;;;;;1.15;0.40;;;14.20;71.00;;;;;;6714498;26;20482;-71
2024/04/09 10:17:44;;;;;;;0.50;0.50;;;14.20;70.90;;;;;;6746870;26;20012;-73
2024/04/09 10:20:55;;;;;;;4.93;0.52;;;14.30;70.80;;;;;;6731057;26;20117;-73
2024/04/09 10:24:04;;;;;;;1.00;0.60;;;14.30;70.80;;;;;;6798091;26;20139;-73
2024/04/09 10:27:05;;;;;;;2.95;0.88;;;14.40;70.80;;;;;;6685295;26;20431;-73
2024/04/09 10:30:14;;;;;;;2.33;0.73;;;14.50;70.70;;;;;;6747087;26;20108;-73
2024/04/09 10:33:36;;;;;;;0.77;0.50;;;14.40;70.10;;;;;;6807726;26;20548;-73
2024/04/09 10:36:37;;;;;;;7.97;0.50;;;14.40;70.10;;;;;;6658680;26;20018;-72
2024/04/09 10:39:38;;;;;;;3.70;0.55;;;14.50;70.10;;;;;;6780005;26;19997;-73
2024/04/09 10:42:39;;;;;;;1.67;0.68;;;14.50;69.90;;;;;;6813000;26;20503;-72
2024/04/09 10:45:41;;;;;;;0.88;0.70;;;14.50;69.80;;;;;;6759265;26;19994;-73
2024/04/09 10:48:43;;;;;;;3.30;0.60;;;14.50;69.60;;;;;;6757385;26;21397;-73
2024/04/09 10:51:48;;;;;;;2.80;0.95;;;14.50;69.30;;;;;;6744604;26;20038;-74
2024/04/09 10:54:49;;;;;;;3.63;1.55;;;14.50;69.20;;;;;;6790559;26;20002;-72
2024/04/09 10:57:54;;;;;;;1.92;0.30;;;14.50;69.50;;;;;;6700301;26;20008;-72
2024/04/09 11:00:55;;;;;;;1.13;0.40;;;14.60;69.80;;;;;;6723214;26;20414;-71
2024/04/09 11:03:56;;;;;;;0.15;0.13;;;14.60;69.40;;;;;;6763881;26;19994;-72
2024/04/09 11:07:00;;;;;;;0.25;0.20;;;14.70;69.20;;;;;;6798544;26;20116;-71
2024/04/09 11:10:02;;;;;;;1.65;0.60;;;14.70;69.00;;;;;;6768603;26;20438;-71
2024/04/09 11:13:05;;;;;;;2.05;0.50;;;14.70;68.60;;;;;;6768249;26;20149;-73
2024/04/09 11:16:16;;;;;;;0.88;0.63;;;14.60;68.30;;;;;;6780480;26;20037;-71
2024/04/09 11:19:25;;;;;;;0.57;0.50;;;14.50;68.00;;;;;;6790724;25;20438;-72
2024/04/09 11:22:26;;;;;;;0.22;0.20;;;14.60;68.50;;;;;;6759329;26;20021;-73
2024/04/09 11:25:27;;;;;;;1.77;0.47;;;14.70;68.40;;;;;;6759237;26;20069;-72
2024/04/09 11:28:30;;;;;;;0.63;0.47;;;14.70;68.20;;;;;;6726925;26;20084;-72
2024/04/09 11:31:33;;;;;;;0.75;0.50;;;14.80;68.30;;;;;;6749967;26;20464;-72
2024/04/09 11:34:35;;;;;;;2.20;0.40;;;14.80;68.10;;;;;;6791394;26;20001;-72
2024/04/09 11:37:47;;;;;;;1.23;0.40;;;14.80;68.00;;;;;;6746256;26;20006;-74
2024/04/09 11:40:50;;;;;;;1.35;0.35;;;14.80;67.50;;;;;;6796836;26;20149;-73
2024/04/09 11:43:59;;;;;;;0.50;0.47;;;14.70;66.90;;;;;;6775376;25;20126;-74
2024/04/09 11:47:00;;;;;;;0.17;0.17;;;14.70;67.20;;;;;;6789012;26;20418;-73
2024/04/09 11:50:04;;;;;;;0.93;0.40;;;14.70;67.50;;;;;;6764988;26;20013;-72
2024/04/09 11:53:06;;;;;;;0.30;0.28;;;14.70;67.70;;;;;;6739226;26;20035;-73
2024/04/09 11:56:07;;;;;;;1.70;0.40;;;14.80;67.80;;;;;;6738319;26;19998;-73
2024/04/09 11:59:09;;;;;;;0.52;0.43;;;14.80;68.00;;;;;;6711535;26;20323;-72
2024/04/09 12:02:10;;;;;;;0.90;0.50;;;14.80;67.90;;;;;;6727816;26;20118;-74
2024/04/09 12:05:14;;;;;;;0.20;0.20;;;14.80;67.30;;;;;;6857749;25;19997;-74
2024/04/09 12:08:15;;;;;;;0.82;0.43;;;14.60;67.40;;;;;;6801791;26;20001;-74
2024/04/09 12:11:16;;;;;;;0.25;0.25;;;14.60;67.90;;;;;;6815427;25;20009;-72
2024/04/09 12:14:17;;;;;;;0.47;0.47;;;14.60;68.10;;;;;;6835429;26;20135;-71
2024/04/09 12:17:17;;;;;;;0.55;0.30;;;14.50;68.50;;;;;;6762650;26;20022;-73
2024/04/09 12:20:19;;;;;;;0.40;0.30;;;14.50;68.90;;;;;;6772243;26;19994;-72
2024/04/09 12:23:20;;;;;;;0.10;0.10;;;14.40;69.00;;;;;;6760691;26;19999;-73
2024/04/09 12:26:22;;;;;;;1.00;0.57;;;14.30;69.40;;;;;;6724856;26;20031;-72
2024/04/09 12:29:25;;;;;;;0.40;0.30;;;14.30;69.20;;;;;;6716337;26;19999;-71
2024/04/09 12:32:26;;;;;;;0.57;0.43;;;14.20;69.10;;;;;;6693929;26;20361;-72
2024/04/09 12:35:27;;;;;;;1.60;0.50;;;14.10;69.20;;;;;;6725928;26;19998;-70
2024/04/09 12:38:28;;;;;;;0.25;0.25;;;14.10;69.70;;;;;;6744289;26;20490;-73
2024/04/09 12:41:30;;;;;;;1.48;0.85;;;14.10;70.00;;;;;;6770423;26;20414;-73
2024/04/09 12:44:32;;;;;;;1.83;0.35;;;14.20;70.20;;;;;;6697510;26;20489;-72
2024/04/09 12:47:33;;;;;;;0.60;0.40;;;14.20;70.00;;;;;;6760814;26;20360;-73
2024/04/09 12:50:34;;;;;;;0.50;0.43;;;14.20;69.80;;;;;;6800558;26;19998;-73
2024/04/09 12:53:36;;;;;;;1.08;0.30;;;14.20;70.10;;;;;;6764102;26;19995;-72
2024/04/09 12:56:38;;;;;;;0.50;0.32;;;14.20;70.40;;;;;;6813009;25;20018;-74
2024/04/09 12:59:38;;;;;;;1.73;0.77;;;14.30;70.80;;;;;;6749911;26;20294;-72
2024/04/09 13:02:39;;;;;;;1.20;0.88;;;14.40;70.70;;;;;;6724071;26;20071;-73
2024/04/09 13:05:42;;;;;;;3.20;1.38;;;14.50;70.50;;;;;;6764780;26;20469;-72
2024/04/09 13:08:44;;;;;;;2.47;1.25;;;14.60;70.00;;;;;;6722876;26;19999;-72
2024/04/09 13:11:45;;;;;;;1.98;1.17;;;14.80;70.20;;;;;;6756859;26;19999;-73
2024/04/09 13:14:46;;;;;;;2.20;0.90;;;15.00;69.90;;;;;;6702274;26;20077;-72
2024/04/09 13:17:47;;;;;;;3.63;1.15;;;15.20;68.50;;;;;;6781050;26;20106;-73
2024/04/09 13:20:47;;;;;;;0.68;0.63;;;15.30;68.10;;;;;;6712366;26;20005;-74
2024/04/09 13:23:49;;;;;;;1.90;1.05;;;15.30;68.40;;;;;;6777684;26;20021;-72
2024/04/09 13:26:52;;;;;;;3.60;0.68;;;15.40;68.40;;;;;;6793879;26;20433;-72
2024/04/09 13:29:54;;;;;;;4.05;1.00;;;15.50;67.90;;;;;;6794434;26;19999;-72
2024/04/09 13:32:55;;;;;;;2.33;1.00;;;15.60;68.20;;;;;;6674128;26;20010;-72
2024/04/09 13:35:55;;;;;;;1.80;1.02;;;15.80;68.30;;;;;;6745864;26;19997;-72
2024/04/09 13:38:58;;;;;;;0.98;0.60;;;15.90;67.10;;;;;;6739453;26;20029;-72
2024/04/09 13:42:00;;;;;;;1.65;1.05;;;16.10;66.50;;;;;;6752729;26;20003;-73
2024/04/09 13:45:00;;;;;;;0.90;0.60;;;16.20;66.10;;;;;;6769172;25;20451;-72
2024/04/09 13:48:02;;;;;;;0.60;0.60;;;16.40;66.00;;;;;;6760004;26;20010;-73
2024/04/09 13:51:04;;;;;;;1.95;1.00;;;16.80;65.20;;;;;;6769687;26;20039;-74
2024/04/09 13:54:06;;;;;;;0.77;0.50;;;17.10;63.70;;;;;;6748967;26;20081;-74
2024/04/09 13:57:08;;;;;;;1.00;0.50;;;17.00;63.00;;;;;;6770360;26;20137;-73
2024/04/09 14:00:11;;;;;;;2.58;0.70;;;16.90;63.40;;;;;;6801181;26;20790;-73
2024/04/09 14:03:14;;;;;;;0.50;0.35;;;16.90;62.70;;;;;;6788939;26;20368;-74
2024/04/09 14:06:18;;;;;;;2.22;1.00;;;16.80;61.60;;;;;;6786729;26;20084;-72
2024/04/09 14:09:20;;;;;;;3.88;0.60;;;16.80;59.60;;;;;;6741693;26;20082;-73
2024/04/09 14:12:24;;;;;;;1.02;0.20;;;16.70;59.10;;;;;;6701024;26;20017;-73
2024/04/09 14:15:25;;;;;;;0.80;0.70;;;16.80;59.90;;;;;;6771049;26;19998;-72
2024/04/09 14:18:30;;;;;;;2.67;0.82;;;16.80;60.00;;;;;;6755632;26;20013;-72
2024/04/09 14:21:31;;;;;;;2.00;0.70;;;16.90;59.90;;;;;;6752435;26;20016;-73
2024/04/09 14:24:32;;;;;;;0.52;0.38;;;16.80;59.60;;;;;;6764181;26;20098;-72
2024/04/09 14:27:33;;;;;;;1.23;0.38;;;16.80;59.40;;;;;;6745339;26;20009;-73
2024/04/09 14:30:34;;;;;;;0.60;0.25;;;16.80;59.20;;;;;;6828548;26;20017;-73
2024/04/09 14:33:35;;;;;;;0.30;0.30;;;16.70;58.60;;;;;;6719322;26;20011;-73
2024/04/09 14:36:37;;;;;;;0.35;0.17;;;16.60;58.00;;;;;;6741257;26;21268;-74
2024/04/09 14:39:40;;;;;;;0.90;0.38;;;16.60;57.80;;;;;;6711752;26;20013;-72
2024/04/09 14:42:41;;;;;;;0.17;0.15;;;16.40;58.10;;;;;;6715139;26;20090;-73
2024/04/09 14:45:42;;;;;;;2.72;0.10;;;16.40;57.80;;;;;;6710178;26;20661;-73
2024/04/09 14:48:44;;;;;;;1.67;0.20;;;16.50;57.40;;;;;;6681000;26;20007;-71
2024/04/09 14:51:46;;;;;;;0.73;0.10;;;16.50;57.30;;;;;;6681506;26;20005;-72
2024/04/09 14:54:48;;;;;;;0.90;0.20;;;16.60;57.20;;;;;;6729531;26;20093;-72
2024/04/09 14:57:50;;;;;;;0.20;0.20;;;16.70;57.20;;;;;;6747898;26;20003;-74
2024/04/09 15:00:53;;;;;;;1.98;0.90;;;17.00;57.50;;;;;;6738717;26;20010;-73
2024/04/09 15:03:55;;;;;;;0.40;0.30;;;17.20;56.30;;;;;;6769395;26;20075;-72
2024/04/09 15:06:59;;;;;;;0.70;0.43;;;17.40;55.80;;;;;;6750316;26;20009;-72
2024/04/09 15:10:00;;;;;;;0.43;0.20;;;17.40;55.40;;;;;;6702431;26;19999;-72
2024/04/09 15:13:00;;;;;;;2.13;0.65;;;17.30;55.40;;;;;;6748468;26;20408;-73
2024/04/09 15:16:03;;;;;;;0.50;0.50;;;17.30;55.40;;;;;;6780550;25;20010;-73
2024/04/09 15:19:07;;;;;;;7.40;1.80;;;17.10;54.90;;;;;;6728180;26;20006;-71
2024/04/09 15:22:07;;;;;;;3.75;0.90;;;17.00;55.30;;;;;;6731056;26;20037;-73
2024/04/09 15:25:11;;;;;;;1.30;0.70;;;16.90;55.60;;;;;;6697968;26;19999;-73
2024/04/09 15:28:14;;;;;;;0.60;0.60;;;16.80;55.70;;;;;;6746057;26;20024;-73
2024/04/09 15:31:16;;;;;;;1.42;0.80;;;16.80;55.60;;;;;;6704154;26;19993;-72
2024/04/09 15:34:17;;;;;;;0.10;0.10;;;16.70;55.90;;;;;;6713594;26;20465;-73
2024/04/09 15:37:17;;;;;;;0.88;0.50;;;16.60;55.70;;;;;;6736802;26;19998;-73
2024/04/09 15:40:18;;;;;;;1.85;0.73;;;16.50;55.40;;;;;;6704030;26;20013;-70
2024/04/09 15:43:20;;;;;;;3.10;0.60;;;16.50;55.50;;;;;;6770359;26;20032;-72
2024/04/09 15:46:21;;;;;;;1.35;0.73;;;16.40;55.10;;;;;;6734327;26;20034;-73